Time;durP1;ratioP1;P1;durP2;ratioP2;P2;SDS_P1;SDS_P2;PMS_P1;PMS_P2;Temp;Humidity;BMP_temperature;BMP_pressure;BME280_temperature;BME280_humidity;BME280_pressure;Samples;Min_cycle;Max_cycle;Signal;HPM_P1;HPM_P2
2021/05/11 00:00:10;;;;;;;3.97;2.37;;;11.90;99.90;;;;;;5068504;28;20234;-64
2021/05/11 00:02:38;;;;;;;7.07;2.47;;;11.80;99.90;;;;;;5067876;28;20193;-64
2021/05/11 00:05:07;;;;;;;5.90;2.50;;;11.80;99.90;;;;;;5066949;28;20199;-64
2021/05/11 00:07:34;;;;;;;4.43;2.33;;;11.80;99.90;;;;;;5068524;28;20266;-64
2021/05/11 00:10:01;;;;;;;6.83;2.60;;;11.70;99.90;;;;;;5066377;28;20714;-64
2021/05/11 00:12:29;;;;;;;3.23;2.53;;;11.70;99.90;;;;;;5068999;28;20196;-64
2021/05/11 00:14:56;;;;;;;3.60;2.20;;;11.60;99.90;;;;;;5064368;28;20266;-64
2021/05/11 00:17:23;;;;;;;4.00;2.40;;;11.60;99.90;;;;;;5067854;28;20303;-64
2021/05/11 00:19:51;;;;;;;4.23;2.30;;;11.60;99.90;;;;;;5063701;28;20204;-64
2021/05/11 00:22:19;;;;;;;6.50;2.20;;;11.60;99.90;;;;;;5068758;28;20286;-64
2021/05/11 00:24:46;;;;;;;3.97;2.77;;;11.50;99.90;;;;;;5060087;28;20224;-63
2021/05/11 00:27:14;;;;;;;2.20;2.10;;;11.50;99.90;;;;;;5070374;28;20222;-64
2021/05/11 00:29:41;;;;;;;4.00;2.17;;;11.50;99.90;;;;;;5066723;28;20574;-64
2021/05/11 00:32:08;;;;;;;2.40;2.20;;;11.40;99.90;;;;;;5065869;28;20234;-64
2021/05/11 00:34:36;;;;;;;4.80;2.50;;;11.30;99.90;;;;;;5066170;28;20327;-64
2021/05/11 00:37:03;;;;;;;8.00;2.80;;;11.30;99.90;;;;;;5069059;28;20312;-64
2021/05/11 00:39:32;;;;;;;2.83;2.47;;;11.20;99.90;;;;;;5064806;28;20292;-64
2021/05/11 00:41:59;;;;;;;3.00;2.70;;;11.20;99.90;;;;;;5065078;28;20195;-63
2021/05/11 00:44:28;;;;;;;3.00;2.33;;;11.10;99.90;;;;;;5064888;28;20806;-64
2021/05/11 00:46:57;;;;;;;2.83;2.40;;;11.10;99.90;;;;;;5069116;28;20250;-64
2021/05/11 00:49:26;;;;;;;3.90;2.50;;;10.90;99.90;;;;;;5065785;28;20709;-64
2021/05/11 00:51:53;;;;;;;7.27;2.67;;;10.80;99.90;;;;;;5067390;28;20210;-64
2021/05/11 00:54:22;;;;;;;4.47;2.40;;;10.80;99.90;;;;;;5067488;28;20188;-64
2021/05/11 00:56:51;;;;;;;4.73;2.70;;;10.70;99.90;;;;;;5063461;28;20278;-63
2021/05/11 00:59:21;;;;;;;4.77;2.70;;;10.60;99.90;;;;;;5065267;28;20212;-64
2021/05/11 01:01:49;;;;;;;2.87;2.30;;;10.50;99.90;;;;;;5063705;28;20730;-63
2021/05/11 01:04:16;;;;;;;3.33;2.40;;;10.60;99.90;;;;;;5062339;28;20212;-63
2021/05/11 01:06:44;;;;;;;4.10;2.70;;;10.50;99.90;;;;;;5062899;28;20231;-64
2021/05/11 01:09:12;;;;;;;4.47;2.60;;;10.50;99.90;;;;;;5062338;28;20555;-63
2021/05/11 01:11:40;;;;;;;2.83;2.63;;;10.40;99.90;;;;;;5061424;28;20195;-64
2021/05/11 01:14:08;;;;;;;7.07;2.73;;;10.30;99.90;;;;;;5061217;28;20200;-64
2021/05/11 01:16:36;;;;;;;4.73;2.40;;;10.30;99.90;;;;;;5059176;28;20220;-64
2021/05/11 01:19:10;;;;;;;3.90;2.40;;;10.30;99.90;;;;;;5061823;28;20211;-63
2021/05/11 01:21:44;;;;;;;5.13;2.47;;;10.30;99.90;;;;;;5065389;28;20219;-64
2021/05/11 01:24:13;;;;;;;3.70;2.50;;;10.30;99.90;;;;;;5061704;28;20622;-63
2021/05/11 01:26:47;;;;;;;3.17;2.50;;;10.30;99.90;;;;;;5064302;28;21001;-64
2021/05/11 01:29:26;;;;;;;9.47;3.00;;;10.30;99.90;;;;;;5065101;28;20188;-64
2021/05/11 01:48:52;;;;;;;2.60;2.50;;;10.00;99.90;;;;;;5080745;28;20287;-64
2021/05/11 01:51:31;;;;;;;6.70;2.80;;;10.00;99.90;;;;;;5061564;28;20239;-64
2021/05/11 01:54:26;;;;;;;6.37;2.93;;;10.00;99.90;;;;;;5053795;28;20676;-63
2021/05/11 02:11:25;;;;;;;3.83;3.07;;;9.70;99.90;;;;;;5062079;28;20192;-63
2021/05/11 02:24:57;;;;;;;3.13;2.83;;;9.60;99.90;;;;;;5052492;28;20219;-63
2021/05/11 02:27:24;;;;;;;7.23;3.37;;;9.50;99.90;;;;;;5060161;28;20200;-63
2021/05/11 02:29:52;;;;;;;4.93;3.23;;;9.50;99.90;;;;;;5059665;28;20579;-64
2021/05/11 02:32:20;;;;;;;3.97;3.07;;;9.50;99.90;;;;;;5055250;28;20189;-63
2021/05/11 02:34:47;;;;;;;4.30;3.47;;;9.50;99.90;;;;;;5063010;28;20196;-63
2021/05/11 02:37:15;;;;;;;7.67;3.67;;;9.50;99.90;;;;;;5056995;28;20252;-64
2021/05/11 02:39:42;;;;;;;7.07;3.30;;;9.50;99.90;;;;;;5053020;28;20240;-63
2021/05/11 02:42:10;;;;;;;6.97;3.30;;;9.60;99.90;;;;;;5057517;28;20197;-64
2021/05/11 02:44:42;;;;;;;10.97;3.90;;;9.50;99.90;;;;;;5060336;28;20225;-64
2021/05/11 02:47:11;;;;;;;3.67;3.40;;;9.50;99.90;;;;;;5067032;28;20184;-64
2021/05/11 02:49:42;;;;;;;4.97;3.60;;;9.40;99.90;;;;;;5061406;28;20188;-63
2021/05/11 02:52:09;;;;;;;7.90;3.70;;;9.40;99.90;;;;;;5061593;28;20203;-63
2021/05/11 02:54:37;;;;;;;3.70;3.00;;;9.30;99.90;;;;;;5064541;28;20279;-64
2021/05/11 02:57:05;;;;;;;7.10;3.47;;;9.30;99.90;;;;;;5067115;28;20252;-63
2021/05/11 02:59:32;;;;;;;4.27;3.40;;;9.30;99.90;;;;;;5063573;28;20274;-63
2021/05/11 03:02:00;;;;;;;9.63;3.73;;;9.20;99.90;;;;;;5063982;28;20192;-64
2021/05/11 03:04:29;;;;;;;4.63;3.57;;;9.20;99.90;;;;;;5066056;28;20279;-63
2021/05/11 03:06:57;;;;;;;5.67;3.47;;;9.20;99.90;;;;;;5062883;28;21558;-63
2021/05/11 03:09:25;;;;;;;7.73;3.70;;;9.10;99.90;;;;;;5061329;28;20192;-64
2021/05/11 03:11:54;;;;;;;5.97;4.37;;;9.20;99.90;;;;;;5063574;28;20261;-64
2021/05/11 03:14:21;;;;;;;8.43;4.73;;;9.20;99.90;;;;;;5066862;28;20196;-63
2021/05/11 03:16:51;;;;;;;5.13;4.47;;;9.30;99.90;;;;;;5064339;28;20246;-64
2021/05/11 03:19:20;;;;;;;9.87;4.90;;;9.30;99.90;;;;;;5063696;28;20207;-63
2021/05/11 03:21:48;;;;;;;11.10;4.97;;;9.30;99.90;;;;;;5067806;28;20203;-63
2021/05/11 03:24:16;;;;;;;9.77;4.87;;;9.30;99.90;;;;;;5062947;28;20536;-64
2021/05/11 03:26:43;;;;;;;7.07;4.57;;;9.30;99.90;;;;;;5066312;28;20224;-63
2021/05/11 03:29:11;;;;;;;5.90;4.17;;;9.40;99.90;;;;;;5064208;28;20200;-64
2021/05/11 03:31:39;;;;;;;6.57;4.20;;;9.40;99.90;;;;;;5055313;28;20224;-63
2021/05/11 03:34:06;;;;;;;12.83;4.83;;;9.40;99.90;;;;;;5061194;28;20571;-63
2021/05/11 03:36:34;;;;;;;6.43;4.40;;;9.40;99.90;;;;;;5057954;28;20254;-63
2021/05/11 03:39:05;;;;;;;6.10;4.27;;;9.50;99.90;;;;;;5061879;28;20281;-64
2021/05/11 03:41:37;;;;;;;6.03;3.97;;;9.50;99.90;;;;;;5057846;28;20238;-63
2021/05/11 03:44:09;;;;;;;4.50;4.10;;;9.50;99.90;;;;;;5063970;28;20232;-64
2021/05/11 03:46:37;;;;;;;9.00;3.83;;;9.50;99.90;;;;;;5066790;28;20246;-63
2021/05/11 03:49:06;;;;;;;5.00;3.73;;;9.50;99.90;;;;;;5062941;28;20224;-63
2021/05/11 03:51:37;;;;;;;4.53;3.93;;;9.60;99.90;;;;;;5064816;28;20220;-64
2021/05/11 03:54:07;;;;;;;6.73;3.70;;;9.50;99.90;;;;;;5080865;28;20193;-64
2021/05/11 03:56:35;;;;;;;6.73;3.40;;;9.60;99.90;;;;;;5057773;28;20610;-63
2021/05/11 03:59:04;;;;;;;8.90;3.93;;;9.60;99.90;;;;;;5064358;28;20555;-63
2021/05/11 04:01:32;;;;;;;5.17;3.90;;;9.50;99.90;;;;;;5066486;28;20724;-64
2021/05/11 04:04:00;;;;;;;8.53;4.13;;;9.60;99.90;;;;;;5060916;28;20878;-64
2021/05/11 04:06:28;;;;;;;4.87;4.07;;;9.70;99.90;;;;;;5065769;28;20340;-64
2021/05/11 04:09:00;;;;;;;9.17;4.20;;;9.70;99.90;;;;;;5063358;28;20224;-63
2021/05/11 04:11:52;;;;;;;10.67;4.83;;;9.80;99.90;;;;;;5059795;28;20288;-63
2021/05/11 04:17:04;;;;;;;10.73;4.27;;;9.80;99.90;;;;;;5060486;28;20211;-63
2021/05/11 04:19:31;;;;;;;9.60;4.27;;;9.90;99.90;;;;;;5061013;28;20207;-63
2021/05/11 04:21:59;;;;;;;10.43;4.20;;;9.90;99.90;;;;;;5064300;28;20188;-64
2021/05/11 04:24:28;;;;;;;6.67;4.80;;;9.90;99.90;;;;;;5061477;28;20666;-63
2021/05/11 04:26:57;;;;;;;10.73;4.77;;;9.90;99.90;;;;;;5054160;28;20947;-64
2021/05/11 04:29:27;;;;;;;11.67;5.07;;;10.00;99.90;;;;;;5060073;28;20204;-64
2021/05/11 04:31:56;;;;;;;6.97;4.40;;;10.10;99.90;;;;;;5066019;28;20291;-64
2021/05/11 04:34:24;;;;;;;8.03;4.67;;;10.20;99.90;;;;;;5063582;28;20278;-64
2021/05/11 04:36:52;;;;;;;6.53;4.27;;;10.30;99.90;;;;;;5066379;28;20246;-63
2021/05/11 04:39:20;;;;;;;10.73;5.00;;;10.30;99.90;;;;;;5060315;28;20713;-63
2021/05/11 04:41:48;;;;;;;8.27;4.50;;;10.40;99.90;;;;;;5060204;28;20200;-63
2021/05/11 04:44:19;;;;;;;6.33;4.77;;;10.60;99.90;;;;;;5059587;28;20219;-63
2021/05/11 04:46:50;;;;;;;10.87;4.37;;;10.70;99.90;;;;;;5063778;28;20750;-63
2021/05/11 04:49:19;;;;;;;9.07;4.13;;;10.80;99.90;;;;;;5057884;28;20645;-64
2021/05/11 04:51:47;;;;;;;9.90;4.10;;;10.90;99.90;;;;;;5060507;28;20253;-63
2021/05/11 04:54:15;;;;;;;6.77;3.80;;;11.10;99.90;;;;;;5064806;28;20606;-63
2021/05/11 04:56:45;;;;;;;6.10;3.53;;;11.30;99.90;;;;;;5055542;28;20216;-63
2021/05/11 04:59:14;;;;;;;9.87;4.20;;;11.40;99.90;;;;;;5062941;28;20189;-63
2021/05/11 05:01:45;;;;;;;7.90;3.57;;;11.60;99.90;;;;;;5060664;28;20219;-63
2021/05/11 05:04:15;;;;;;;10.77;3.77;;;11.80;99.90;;;;;;5045612;28;20287;-63
2021/05/11 05:06:43;;;;;;;4.67;3.50;;;12.00;99.90;;;;;;5058908;28;20181;-63
2021/05/11 05:09:11;;;;;;;7.40;3.53;;;12.20;99.90;;;;;;5062762;28;20254;-64
2021/05/11 05:11:40;;;;;;;8.67;3.83;;;12.40;99.90;;;;;;5062296;28;20184;-64
2021/05/11 05:14:08;;;;;;;5.83;3.47;;;12.70;99.90;;;;;;5066483;28;20192;-64
2021/05/11 05:16:36;;;;;;;7.20;3.10;;;12.90;99.90;;;;;;5065497;28;20189;-64
2021/05/11 05:19:06;;;;;;;5.07;3.43;;;13.10;99.90;;;;;;5067236;28;20588;-64
2021/05/11 05:21:34;;;;;;;7.70;3.20;;;13.30;99.90;;;;;;5062168;28;20302;-64
2021/05/11 05:24:09;;;;;;;7.43;3.10;;;13.30;99.90;;;;;;5062902;28;20224;-64
2021/05/11 05:26:37;;;;;;;5.03;3.17;;;13.40;99.90;;;;;;5064189;28;20225;-64
2021/05/11 05:29:04;;;;;;;8.40;3.37;;;13.50;99.90;;;;;;5054588;28;20284;-64
2021/05/11 05:31:35;;;;;;;4.83;3.23;;;13.60;99.90;;;;;;5056857;28;20283;-64
2021/05/11 05:34:05;;;;;;;3.70;2.90;;;13.70;99.90;;;;;;5064594;28;20207;-64
2021/05/11 05:36:32;;;;;;;7.70;3.33;;;13.80;99.90;;;;;;5057977;28;20188;-64
2021/05/11 05:39:00;;;;;;;5.60;3.37;;;14.00;99.90;;;;;;5061136;28;20228;-64
2021/05/11 05:41:29;;;;;;;6.23;3.57;;;14.20;99.90;;;;;;5063742;28;20219;-64
2021/05/11 05:43:59;;;;;;;8.20;3.20;;;14.20;99.90;;;;;;5066039;28;20184;-64
2021/05/11 05:46:26;;;;;;;6.47;3.10;;;14.40;99.90;;;;;;5058405;28;20698;-64
2021/05/11 05:48:55;;;;;;;6.73;2.90;;;14.50;99.90;;;;;;5062208;28;20206;-64
2021/05/11 05:51:24;;;;;;;7.33;3.00;;;14.30;99.90;;;;;;5060538;28;20660;-64
2021/05/11 05:53:52;;;;;;;3.10;2.80;;;14.30;99.90;;;;;;5062682;28;20199;-64
2021/05/11 05:56:20;;;;;;;3.40;2.90;;;14.10;99.90;;;;;;5058943;28;20193;-64
2021/05/11 05:58:48;;;;;;;4.00;2.80;;;14.00;99.90;;;;;;5057519;28;20250;-64
2021/05/11 06:01:17;;;;;;;3.97;2.90;;;13.90;99.90;;;;;;5059290;28;20231;-64
2021/05/11 06:03:51;;;;;;;8.47;3.07;;;13.90;99.90;;;;;;5059517;28;20618;-64
2021/05/11 06:06:20;;;;;;;4.67;3.20;;;13.90;99.90;;;;;;5067861;28;20184;-64
2021/05/11 06:08:48;;;;;;;5.03;2.97;;;14.00;99.90;;;;;;5064142;28;20200;-64
2021/05/11 06:11:19;;;;;;;4.33;2.80;;;14.00;99.90;;;;;;5068001;28;20188;-64
2021/05/11 06:13:50;;;;;;;8.53;3.20;;;14.00;99.90;;;;;;5063422;28;20192;-64
2021/05/11 06:19:05;;;;;;;6.43;3.27;;;14.10;99.90;;;;;;5066442;28;20200;-64
2021/05/11 06:21:33;;;;;;;4.67;3.23;;;14.10;99.90;;;;;;5067879;28;20212;-64
2021/05/11 06:24:04;;;;;;;4.63;3.03;;;14.10;99.90;;;;;;5071970;28;20558;-64
2021/05/11 06:26:31;;;;;;;8.10;3.20;;;14.10;99.90;;;;;;5068967;28;20917;-64
2021/05/11 06:29:01;;;;;;;6.90;3.57;;;14.10;99.90;;;;;;5066415;28;20192;-64
2021/05/11 06:31:29;;;;;;;5.90;3.00;;;14.20;99.90;;;;;;5065588;28;20713;-64
2021/05/11 06:33:59;;;;;;;9.10;3.47;;;14.20;99.90;;;;;;5064580;28;20215;-64
2021/05/11 06:36:27;;;;;;;4.40;3.03;;;14.10;99.90;;;;;;5062230;28;20224;-64
2021/05/11 06:39:12;;;;;;;6.30;3.30;;;14.30;99.90;;;;;;5065142;28;20343;-64
2021/05/11 06:41:42;;;;;;;6.13;3.30;;;14.30;99.90;;;;;;5066457;28;20307;-64
2021/05/11 06:44:14;;;;;;;6.07;3.43;;;14.40;99.90;;;;;;5082627;28;20200;-64
2021/05/11 06:47:09;;;;;;;9.33;3.73;;;14.50;99.90;;;;;;5063744;28;20789;-64
2021/05/11 06:49:43;;;;;;;44.47;6.97;;;14.60;99.90;;;;;;5067592;28;20206;-64
2021/05/11 06:55:02;;;;;;;28.93;4.83;;;15.30;99.90;;;;;;5064024;28;20204;-64
2021/05/11 06:57:30;;;;;;;5.90;3.27;;;15.60;99.90;;;;;;5068961;28;20196;-65
2021/05/11 06:59:58;;;;;;;4.73;2.70;;;15.70;99.90;;;;;;5066967;28;20831;-64
2021/05/11 07:02:26;;;;;;;6.47;2.37;;;15.60;99.90;;;;;;5067439;28;20283;-65
2021/05/11 07:04:54;;;;;;;6.80;3.13;;;15.60;99.90;;;;;;5064322;28;20196;-64
2021/05/11 07:07:22;;;;;;;7.03;2.70;;;15.60;99.90;;;;;;5054883;28;20648;-64
2021/05/11 07:10:01;;;;;;;8.63;2.97;;;15.50;99.90;;;;;;5066911;28;20663;-64
2021/05/11 07:15:17;;;;;;;3.97;2.80;;;15.40;99.90;;;;;;5068057;28;20253;-64
2021/05/11 07:17:45;;;;;;;4.63;2.77;;;15.30;99.90;;;;;;5066273;28;20192;-64
2021/05/11 07:20:13;;;;;;;4.00;2.80;;;15.50;99.90;;;;;;5066154;28;20199;-65
2021/05/11 07:22:41;;;;;;;5.60;2.47;;;15.90;99.90;;;;;;5070055;28;20287;-65
2021/05/11 07:25:12;;;;;;;5.97;2.90;;;16.20;99.90;;;;;;5065890;28;20208;-64
2021/05/11 07:30:35;;;;;;;4.10;2.80;;;16.30;99.90;;;;;;5041468;28;20334;-65
2021/05/11 07:33:05;;;;;;;7.50;2.50;;;16.70;99.90;;;;;;5062759;28;20585;-65
2021/05/11 07:35:35;;;;;;;4.43;2.60;;;17.20;99.90;;;;;;5068461;28;20647;-65
2021/05/11 07:38:05;;;;;;;5.97;2.40;;;17.80;99.90;;;;;;5065791;28;20707;-65
2021/05/11 07:40:33;;;;;;;3.47;2.20;;;18.20;99.90;;;;;;5064988;28;20220;-65
2021/05/11 07:43:02;;;;;;;4.30;2.17;;;18.50;99.90;;;;;;5064800;28;20203;-65
2021/05/11 07:45:40;;;;;;;7.20;2.50;;;19.20;99.90;;;;;;5067205;28;20261;-65
2021/05/11 08:05:21;;;;;;;4.10;2.27;;;19.60;99.90;;;;;;5068010;28;20257;-65
2021/05/11 08:10:51;;;;;;;12.73;3.10;;;19.70;99.90;;;;;;5040848;28;20205;-65
2021/05/11 08:16:06;;;;;;;4.90;2.30;;;19.70;99.90;;;;;;5045413;28;20222;-65
2021/05/11 08:18:42;;;;;;;3.30;2.37;;;20.10;99.90;;;;;;5065192;28;20805;-65
2021/05/11 08:29:31;;;;;;;3.00;1.97;;;20.90;99.90;;;;;;5063521;28;20233;-65
2021/05/11 08:32:00;;;;;;;5.47;2.27;;;21.30;99.90;;;;;;5065052;28;20243;-65
2021/05/11 08:34:28;;;;;;;4.80;2.40;;;21.70;99.90;;;;;;5061720;28;20582;-65
2021/05/11 08:36:57;;;;;;;5.23;2.47;;;22.50;99.90;;;;;;5066881;28;20200;-65
2021/05/11 08:39:25;;;;;;;6.57;2.30;;;22.70;99.90;;;;;;5066670;28;20274;-66
2021/05/11 08:41:53;;;;;;;2.80;2.10;;;22.40;99.90;;;;;;5064545;28;20697;-65
2021/05/11 08:44:21;;;;;;;5.30;2.23;;;22.80;99.90;;;;;;5068174;28;20245;-65
2021/05/11 08:46:49;;;;;;;2.73;1.90;;;23.10;99.90;;;;;;5061140;28;20200;-66
2021/05/11 08:49:18;;;;;;;3.35;2.10;;;23.70;99.90;;;;;;5063118;28;20253;-66
2021/05/11 08:51:57;;;;;;;3.95;1.92;;;23.50;99.90;;;;;;5064677;28;20535;-66
2021/05/11 09:06:09;;;;;;;5.55;1.85;;;25.10;99.90;;;;;;5062475;28;20222;-66
2021/05/11 09:25:58;;;;;;;5.18;1.90;;;25.30;99.90;;;;;;5065996;28;20252;-66
2021/05/11 09:28:34;;;;;;;3.00;2.03;;;25.00;99.90;;;;;;5063092;28;20199;-66
2021/05/11 09:31:10;;;;;;;3.75;1.85;;;24.70;99.90;;;;;;5063162;28;20193;-66
2021/05/11 09:33:49;;;;;;;4.45;1.90;;;24.40;99.90;;;;;;5058982;28;20191;-66
2021/05/11 09:45:25;;;;;;;10.88;2.55;;;25.60;99.90;;;;;;5056765;28;20282;-66
2021/05/11 09:51:28;;;;;;;6.65;1.92;;;26.00;99.90;;;;;;5064511;28;20287;-66
2021/05/11 09:57:08;;;;;;;2.22;1.30;;;26.40;98.20;;;;;;5024389;28;20284;-66
2021/05/11 10:40:31;;;;;;;2.28;1.25;;;25.80;93.40;;;;;;5062995;28;20204;-65
2021/05/11 10:48:41;;;;;;;3.20;1.33;;;25.20;93.80;;;;;;5062515;28;20273;-66
2021/05/11 10:51:24;;;;;;;19.23;3.00;;;24.20;96.00;;;;;;5063083;28;20216;-66
2021/05/11 10:54:03;;;;;;;4.27;1.80;;;23.50;97.00;;;;;;5063754;28;21141;-65
2021/05/11 10:57:07;;;;;;;9.63;2.03;;;23.10;98.20;;;;;;5067256;28;20194;-65
2021/05/11 10:59:57;;;;;;;5.83;2.00;;;22.70;99.90;;;;;;5064155;28;20317;-65
2021/05/11 11:05:37;;;;;;;5.37;1.77;;;21.90;99.90;;;;;;5066421;28;20189;-65
2021/05/11 11:08:29;;;;;;;3.53;1.50;;;21.30;99.90;;;;;;5060190;28;20211;-65
2021/05/11 11:11:12;;;;;;;2.40;1.50;;;20.90;99.90;;;;;;5061218;28;20192;-64
2021/05/11 11:13:42;;;;;;;3.97;1.10;;;20.60;99.90;;;;;;5068354;28;20204;-65
2021/05/11 11:16:11;;;;;;;2.93;1.50;;;20.60;99.90;;;;;;5067588;28;20667;-65
2021/05/11 11:18:39;;;;;;;12.43;2.23;;;20.80;99.90;;;;;;5063322;28;20196;-64
2021/05/11 11:21:34;;;;;;;2.60;1.50;;;20.80;99.90;;;;;;5068764;28;20720;-65
2021/05/11 11:24:02;;;;;;;3.40;1.37;;;20.70;98.70;;;;;;5067997;28;20277;-64
2021/05/11 11:26:31;;;;;;;3.83;1.40;;;20.40;98.60;;;;;;5069905;28;20299;-65
2021/05/11 11:29:00;;;;;;;1.63;1.37;;;20.20;98.80;;;;;;5066973;28;20191;-64
2021/05/11 11:31:30;;;;;;;2.53;1.50;;;20.00;99.70;;;;;;5066865;28;20325;-64
2021/05/11 11:34:21;;;;;;;3.07;1.40;;;19.80;99.90;;;;;;5061599;28;20203;-64
2021/05/11 11:36:55;;;;;;;2.93;1.40;;;19.50;99.90;;;;;;5064843;28;20200;-64
2021/05/11 11:39:24;;;;;;;6.37;1.77;;;19.40;99.90;;;;;;5063851;28;20659;-65
2021/05/11 11:41:56;;;;;;;5.07;1.97;;;19.20;99.90;;;;;;5061458;28;20704;-64
2021/05/11 11:44:28;;;;;;;6.20;1.70;;;19.00;99.90;;;;;;5068665;28;20216;-64
2021/05/11 11:47:04;;;;;;;4.63;1.90;;;18.80;99.90;;;;;;5065236;28;20231;-64
2021/05/11 11:49:36;;;;;;;4.17;1.63;;;18.80;99.90;;;;;;5065541;28;20657;-64
2021/05/11 11:52:09;;;;;;;3.23;1.63;;;18.60;99.90;;;;;;5068115;28;20275;-64
2021/05/11 11:54:41;;;;;;;3.47;1.60;;;18.40;99.90;;;;;;5067246;28;20200;-64
2021/05/11 12:00:10;;;;;;;6.63;1.70;;;18.10;99.90;;;;;;5066892;28;20257;-64
2021/05/11 12:02:38;;;;;;;5.70;1.30;;;18.00;99.90;;;;;;5067336;28;20295;-64
2021/05/11 12:05:10;;;;;;;2.17;1.60;;;17.90;99.90;;;;;;5064670;28;20200;-64
2021/05/11 12:07:54;;;;;;;3.57;1.20;;;17.80;99.90;;;;;;5066227;28;20223;-64
2021/05/11 12:10:22;;;;;;;7.67;1.90;;;17.80;99.90;;;;;;5064941;28;20188;-64
2021/05/11 12:12:50;;;;;;;6.00;1.50;;;17.60;99.90;;;;;;5065944;28;20241;-65
2021/05/11 12:15:21;;;;;;;5.60;1.73;;;17.10;99.90;;;;;;5068020;28;20211;-65
2021/05/11 12:17:59;;;;;;;6.63;1.73;;;16.60;99.90;;;;;;5060760;28;20270;-65
2021/05/11 12:20:27;;;;;;;2.97;1.63;;;16.20;99.90;;;;;;5066718;28;20570;-65
2021/05/11 12:23:14;;;;;;;3.90;1.70;;;15.90;99.90;;;;;;5067372;28;20251;-64
2021/05/11 12:25:43;;;;;;;4.90;1.67;;;15.70;99.90;;;;;;5063455;28;20192;-65
2021/05/11 12:28:29;;;;;;;3.03;1.57;;;15.50;99.90;;;;;;5066492;28;20750;-64
2021/05/11 12:30:57;;;;;;;3.23;1.73;;;15.20;99.90;;;;;;5065324;28;20309;-64
2021/05/11 12:33:33;;;;;;;3.20;1.40;;;15.20;99.90;;;;;;5066507;28;20254;-64
2021/05/11 12:36:14;;;;;;;3.13;2.00;;;15.00;99.90;;;;;;5064331;28;20219;-64
2021/05/11 12:38:44;;;;;;;3.47;1.90;;;14.90;99.90;;;;;;5059015;28;20219;-64
2021/05/11 12:41:31;;;;;;;4.23;2.17;;;14.70;99.90;;;;;;5065470;28;20253;-65
2021/05/11 12:44:01;;;;;;;7.00;2.20;;;14.50;99.90;;;;;;5068574;28;20214;-65
2021/05/11 12:46:30;;;;;;;5.60;2.30;;;14.10;99.90;;;;;;5062433;28;20195;-65
2021/05/11 12:49:00;;;;;;;7.00;2.33;;;13.90;99.90;;;;;;5067195;28;20275;-65
2021/05/11 12:51:30;;;;;;;6.07;2.17;;;13.70;99.90;;;;;;5067083;28;20200;-65
2021/05/11 12:54:01;;;;;;;5.17;2.57;;;13.50;99.90;;;;;;5064308;28;20196;-65
2021/05/11 12:56:43;;;;;;;4.33;2.70;;;13.40;99.90;;;;;;5067411;28;20254;-65
2021/05/11 12:59:36;;;;;;;4.70;2.80;;;13.40;99.90;;;;;;5066861;28;20199;-65
2021/05/11 13:02:10;;;;;;;7.43;2.00;;;13.60;99.90;;;;;;5061423;28;20262;-65
2021/05/11 13:26:59;;;;;;;1.90;1.60;;;14.70;99.90;;;;;;5058433;28;20292;-65
2021/05/11 13:29:38;;;;;;;1.90;1.80;;;14.90;99.90;;;;;;5058983;28;20602;-65
2021/05/11 13:32:09;;;;;;;1.83;1.30;;;15.00;99.90;;;;;;5063529;28;20203;-65
2021/05/11 13:34:37;;;;;;;1.30;1.20;;;15.10;99.90;;;;;;5063578;28;20193;-64
2021/05/11 13:37:05;;;;;;;4.03;1.13;;;15.10;99.90;;;;;;5063202;28;20759;-64
2021/05/11 13:39:34;;;;;;;1.33;1.10;;;15.30;99.90;;;;;;5065472;28;20196;-65
2021/05/11 13:42:03;;;;;;;1.40;1.30;;;15.40;99.90;;;;;;5062088;28;20192;-64
2021/05/11 13:44:31;;;;;;;2.23;1.47;;;15.70;99.90;;;;;;5067665;28;20532;-65
2021/05/11 13:46:59;;;;;;;1.70;1.60;;;15.70;99.90;;;;;;5064946;28;20262;-65
2021/05/11 13:49:29;;;;;;;2.13;1.40;;;15.80;99.90;;;;;;5065208;28;20677;-65
2021/05/11 13:51:57;;;;;;;4.27;2.47;;;15.90;99.90;;;;;;5063907;28;20708;-65
2021/05/11 13:54:25;;;;;;;6.57;2.70;;;15.90;99.90;;;;;;5068809;28;20233;-65
2021/05/11 13:57:00;;;;;;;4.83;2.00;;;15.90;99.90;;;;;;5064449;28;20655;-64
2021/05/11 14:02:34;;;;;;;3.00;1.63;;;15.90;99.90;;;;;;5064289;28;20647;-64
2021/05/11 14:05:02;;;;;;;1.50;1.40;;;15.90;99.90;;;;;;5062455;28;20275;-64
2021/05/11 14:07:31;;;;;;;1.20;1.20;;;15.90;99.90;;;;;;5057198;28;20192;-64
2021/05/11 14:09:59;;;;;;;1.00;1.00;;;15.80;99.90;;;;;;5063144;28;20196;-65
2021/05/11 14:12:27;;;;;;;1.37;1.23;;;15.80;99.90;;;;;;5061335;28;20249;-64
2021/05/11 14:14:56;;;;;;;1.50;0.90;;;15.80;99.90;;;;;;5064281;28;20605;-64
2021/05/11 14:17:23;;;;;;;3.07;1.40;;;15.80;99.90;;;;;;5062970;28;20219;-64
2021/05/11 14:19:51;;;;;;;1.40;1.30;;;15.90;99.90;;;;;;5054773;28;20197;-64
2021/05/11 14:22:20;;;;;;;1.10;1.00;;;15.90;99.90;;;;;;5053750;28;20230;-64
2021/05/11 14:24:48;;;;;;;1.00;1.00;;;16.00;99.90;;;;;;5064447;28;20670;-64
2021/05/11 14:27:17;;;;;;;1.50;1.40;;;16.00;99.90;;;;;;5067570;28;20188;-64
2021/05/11 14:29:45;;;;;;;1.40;1.30;;;16.00;99.90;;;;;;5057708;28;20196;-64
2021/05/11 14:32:14;;;;;;;1.73;1.50;;;16.00;99.90;;;;;;5058107;28;20216;-64
2021/05/11 14:34:42;;;;;;;1.70;1.60;;;16.10;99.90;;;;;;5064355;28;20184;-64
2021/05/11 14:37:10;;;;;;;1.93;1.70;;;16.10;99.90;;;;;;5060425;28;20235;-64
2021/05/11 14:39:38;;;;;;;1.97;1.60;;;16.30;99.90;;;;;;5063323;28;20625;-64
2021/05/11 14:42:06;;;;;;;1.50;1.40;;;16.30;99.90;;;;;;5059330;28;20197;-64
2021/05/11 14:44:34;;;;;;;1.20;1.10;;;16.30;99.90;;;;;;5068177;28;20212;-64
2021/05/11 14:47:03;;;;;;;1.37;1.27;;;16.30;99.90;;;;;;5066235;28;20200;-64
2021/05/11 14:49:33;;;;;;;1.40;1.13;;;16.40;99.90;;;;;;5064378;28;20207;-64
2021/05/11 14:52:01;;;;;;;1.20;1.17;;;16.40;99.90;;;;;;5062730;28;20204;-64
2021/05/11 14:54:29;;;;;;;1.17;1.10;;;16.50;99.90;;;;;;5069374;28;20191;-64
2021/05/11 14:56:57;;;;;;;1.07;1.00;;;16.50;99.90;;;;;;5066821;28;20200;-64
2021/05/11 14:59:26;;;;;;;2.50;1.70;;;16.60;99.90;;;;;;5066979;28;20714;-64
2021/05/11 15:01:54;;;;;;;1.37;1.20;;;16.50;99.90;;;;;;5068472;28;20222;-63
2021/05/11 15:04:21;;;;;;;1.67;1.30;;;16.60;99.90;;;;;;5066890;28;20687;-64
2021/05/11 15:06:52;;;;;;;1.33;1.23;;;16.70;99.90;;;;;;5069348;28;20198;-64
2021/05/11 15:09:21;;;;;;;1.10;1.10;;;16.80;99.90;;;;;;5069417;28;20291;-64
2021/05/11 15:11:48;;;;;;;2.20;1.33;;;16.90;99.90;;;;;;5069012;28;20679;-64
2021/05/11 15:14:17;;;;;;;1.67;1.17;;;17.00;99.90;;;;;;5067788;28;20192;-64
2021/05/11 15:16:56;;;;;;;2.90;1.50;;;17.10;99.90;;;;;;5063991;28;20231;-64
2021/05/11 15:19:26;;;;;;;1.20;1.13;;;17.20;99.90;;;;;;5065398;28;20246;-64
2021/05/11 15:21:54;;;;;;;1.80;1.17;;;17.20;99.90;;;;;;5067317;28;20223;-64
2021/05/11 15:24:22;;;;;;;1.30;1.10;;;17.20;99.90;;;;;;5066607;28;20255;-64
2021/05/11 15:26:51;;;;;;;1.67;1.20;;;17.20;99.90;;;;;;5063061;28;20193;-64
2021/05/11 15:29:19;;;;;;;4.03;1.20;;;17.30;99.90;;;;;;5065126;28;20226;-64
2021/05/11 15:31:48;;;;;;;1.50;1.00;;;17.40;99.90;;;;;;5061143;28;20290;-64
2021/05/11 15:34:16;;;;;;;1.43;1.20;;;17.40;99.90;;;;;;5069318;28;20193;-64
2021/05/11 15:36:59;;;;;;;1.13;1.00;;;17.40;99.90;;;;;;5065211;28;20251;-64
2021/05/11 15:39:27;;;;;;;1.93;1.30;;;17.30;99.90;;;;;;5066989;28;20194;-64
2021/05/11 15:41:55;;;;;;;1.47;1.30;;;17.30;99.90;;;;;;5063654;28;20208;-64
2021/05/11 15:44:23;;;;;;;1.20;1.20;;;17.30;99.90;;;;;;5063551;28;20258;-64
2021/05/11 15:46:51;;;;;;;1.90;1.50;;;17.30;99.90;;;;;;5064483;28;20662;-64
2021/05/11 15:49:20;;;;;;;2.30;1.30;;;17.20;99.90;;;;;;5063637;28;20200;-64
2021/05/11 15:51:48;;;;;;;1.40;1.40;;;17.20;99.90;;;;;;5060198;28;20610;-64
2021/05/11 15:54:17;;;;;;;4.73;1.70;;;17.30;99.90;;;;;;5060177;28;20208;-64
2021/05/11 15:56:45;;;;;;;1.57;1.40;;;17.40;99.90;;;;;;5067361;28;20705;-65
2021/05/11 15:59:12;;;;;;;1.47;1.33;;;17.50;99.90;;;;;;5059767;28;20227;-65
2021/05/11 16:01:41;;;;;;;1.60;1.50;;;17.50;99.90;;;;;;5062909;28;20262;-64
2021/05/11 16:04:08;;;;;;;1.60;1.47;;;17.50;99.90;;;;;;5067714;28;20216;-64
2021/05/11 16:06:38;;;;;;;1.70;1.33;;;17.40;99.90;;;;;;5063950;28;20200;-64
2021/05/11 16:09:07;;;;;;;1.27;1.07;;;17.40;99.90;;;;;;5062650;28;20268;-64
2021/05/11 16:11:36;;;;;;;1.30;1.20;;;17.30;99.90;;;;;;5060449;28;20662;-64
2021/05/11 16:14:05;;;;;;;1.30;1.20;;;17.30;99.90;;;;;;5064596;28;20536;-65
2021/05/11 16:16:33;;;;;;;1.60;1.30;;;17.20;99.90;;;;;;5063220;28;20781;-64
2021/05/11 16:19:00;;;;;;;2.10;1.57;;;17.30;99.90;;;;;;5060535;28;20212;-64
2021/05/11 16:21:28;;;;;;;1.77;1.60;;;17.30;99.90;;;;;;5066354;28;20192;-64
2021/05/11 16:23:56;;;;;;;1.50;1.40;;;17.20;99.90;;;;;;5061960;28;20220;-64
2021/05/11 16:26:25;;;;;;;1.20;1.20;;;17.20;99.90;;;;;;5065166;28;20204;-65
2021/05/11 16:28:54;;;;;;;2.00;1.30;;;17.30;99.90;;;;;;5063203;28;20224;-64
2021/05/11 16:31:23;;;;;;;5.20;2.10;;;17.30;99.90;;;;;;5064401;28;20452;-64
2021/05/11 16:33:51;;;;;;;8.07;2.60;;;17.20;99.90;;;;;;5066787;28;20227;-64